Latest Coastal Weather Observations for Neptune Island

IDT60701

Issued at 12:11 am EDT Saturday 28 March 2015 (issued every 10 minutes, with the page automatically refreshed every 10 minutes)

About coastal observations | Map of coastal stations | Coastal observations for TAS | Marine services | Other Formats
Station Details ID: 018115 Name: NEPTUNE ISLAND Lat: -35.34 Lon: 136.12 Height: 32.0 m
Data from the previous 72 hours. | See also: Recent months at Neptune Island
Date/Time
EDT
Temp

°C
Wind Pressure Rain
since 9am
mm
Weather Cloud Vis
km
Sea
Height
m
Swell
Dir
 
Speed
knots
Gust
knots
hPa Trend Height
m
Period
s
Dir
28/12:00am 15.5 ESE 8 9 1026.6 - 0.0 - - - - - - -
 
Date/Time
EDT
Temp

°C
Wind Pressure Rain
since 9am
mm
Weather Cloud Vis
km
Sea
Height
m
Swell
Dir
 
Speed
knots
Gust
knots
hPa Trend Height
m
Period
s
Dir
27/11:30pm 15.3 E 10 13 1026.6 - 0.0 - - - - - - -
27/11:00pm 15.2 SE 9 11 1026.8 - 0.0 - - - - - - -
27/10:30pm 15.5 SE 9 11 1027.0 - 0.0 - - - - - - -
27/10:00pm 15.3 SSE 8 11 1027.2 - 0.0 - - - - - - -
27/09:30pm 15.3 SSE 9 11 1027.1 - 0.0 - - - - - - -
27/09:00pm 15.6 SSE 9 11 1026.9 - 0.0 - - - - - - -
27/08:30pm 15.5 S 9 13 1026.6 - 0.0 - - - - - - -
27/08:00pm 15.5 S 11 13 1026.4 - 0.0 - - - - - - -
27/07:30pm 15.7 S 11 13 1026.5 - 0.0 - - - - - - -
27/07:00pm 16.0 S 9 11 1026.5 - 0.0 - - - - - - -
27/06:30pm 16.3 S 9 11 1026.6 - 0.0 - - - - - - -
27/06:00pm 15.4 S 10 11 1026.6 - 0.0 - - - - - - -
27/05:30pm 17.0 SSW 10 14 1026.8 - 0.0 - - - - - - -
27/05:00pm 17.1 S 11 13 1026.8 - 0.0 - - - - - - -
27/04:30pm 17.0 SSW 8 11 1026.9 - 0.0 - - - - - - -
27/04:00pm 17.5 SSW 7 10 1027.2 - 0.0 - - - - - - -
27/03:30pm 17.9 S 7 10 1027.3 - 0.0 - - - - - - -
27/03:00pm 16.8 SSW 6 7 1027.7 - 0.0 - - - - - - -
27/02:30pm 16.0 WSW 2 4 1028.1 - 0.0 - - - - - - -
27/02:00pm 17.4 ENE 5 7 1028.5 - 0.0 - - - - - - -
27/01:30pm 16.0 SW 4 6 1028.8 - 0.0 - - - - - - -
27/01:00pm 16.1 SSW 7 13 1029.2 - 0.0 - - - - - - -
27/12:30pm 16.7 SSW 6 7 1029.4 - 0.0 - - - - - - -
27/12:00pm 16.1 SE 5 7 1029.6 - 0.0 - - - - - - -
27/11:30am 15.6 SSE 6 8 1029.8 - 0.0 - - - - - - -
27/11:00am 14.6 SSE 12 15 1030.0 - 0.0 - - - - - - -
27/10:30am 15.2 SSE 11 15 1029.7 - 0.0 - - - - - - -
27/10:00am 14.8 SSW 13 16 1029.6 - 0.0 - - - - - - -
27/09:30am 15.1 S 15 19 1029.3 - 0.0 - - - - - - -
27/09:00am 15.1 S 11 13 1029.3 - 0.0 - - - - - - -
27/08:30am 14.7 SSW 11 14 1028.9 - 0.0 - - - - - - -
27/08:00am 14.2 SW 7 9 1028.8 - 0.0 - - - - - - -
27/07:30am 14.1 SSW 17 20 1028.5 - 0.0 - - - - - - -
27/07:00am 14.2 SSW 16 19 1028.4 - 0.0 - - - - - - -
27/06:30am 14.5 SW 15 17 1028.1 - 0.0 - - - - - - -
27/06:00am 14.7 SSW 15 20 1027.9 - 0.0 - - - - - - -
27/05:30am 15.1 SSW 9 11 1028.0 - 0.0 - - - - - - -
27/05:00am 15.1 SSW 12 16 1028.0 - 0.0 - - - - - - -
27/04:30am 15.1 SSW 12 16 1028.0 - 0.0 - - - - - - -
27/04:00am 15.1 SSW 8 9 1028.0 - 0.0 - - - - - - -
27/03:30am 15.1 SSW 13 16 1028.2 - 0.0 - - - - - - -
27/03:00am 14.8 S 14 17 1028.3 - 0.0 - - - - - - -
27/02:30am 15.2 SSW 12 15 1028.4 - 0.0 - - - - - - -
27/02:00am 15.4 S 15 19 1028.4 - 0.0 - - - - - - -
27/01:30am 15.2 SSW 13 17 1028.5 - 0.0 - - - - - - -
27/01:00am 15.3 S 17 21 1028.6 - 0.0 - - - - - - -
27/12:30am 15.4 SSW 14 17 1028.7 - 0.0 - - - - - - -
27/12:00am 15.3 S 16 22 1028.7 - 0.0 - - - - - - -
 
Date/Time
EDT
Temp

°C
Wind Pressure Rain
since 9am
mm
Weather Cloud Vis
km
Sea
Height
m
Swell
Dir
 
Speed
knots
Gust
knots
hPa Trend Height
m
Period
s
Dir
26/11:30pm 15.3 SSW 17 20 1028.8 - 0.0 - - - - - - -
26/11:00pm 15.4 S 17 21 1028.8 - 0.0 - - - - - - -
26/10:30pm 15.2 S 16 19 1028.8 - 0.0 - - - - - - -
26/10:00pm 15.3 S 18 22 1028.8 - 0.0 - - - - - - -
26/09:30pm 15.4 SSW 15 18 1028.7 - 0.0 - - - - - - -
26/09:00pm 15.2 SSW 17 22 1028.5 - 0.0 - - - - - - -
26/08:30pm 15.3 SSW 17 20 1028.3 - 0.0 - - - - - - -
26/08:00pm 14.9 SSW 17 23 1028.3 - 0.0 - - - - - - -
26/07:30pm 15.4 SSW 15 18 1028.1 - 0.0 - - - - - - -
26/07:00pm 15.2 SSW 17 20 1028.0 - 0.0 - - - - - - -
26/06:30pm 15.5 SSW 18 22 1027.7 - 0.0 - - - - - - -
26/06:00pm 15.3 SSW 18 21 1027.5 - 0.0 - - - - - - -
26/05:30pm 15.4 SSW 18 22 1027.5 - 0.0 - - - - - - -
26/05:00pm 16.5 SSW 17 21 1027.3 - 0.0 - - - - - - -
26/04:30pm 15.8 SSW 16 22 1027.4 - 0.0 - - - - - - -
26/04:00pm 16.1 SSW 16 20 1027.3 - 0.0 - - - - - - -
26/03:30pm 17.1 SW 18 22 1027.4 - 0.0 - - - - - - -
26/03:00pm 16.1 SSW 19 25 1027.5 - 0.0 - - - - - - -
26/02:30pm 15.8 SSW 19 27 1027.5 - 0.0 - - - - - - -
26/02:24pm 15.4 SSW 17 27 1027.7 - 0.0 - - - - - - -
26/02:00pm 16.4 SW 17 21 1027.9 - 0.0 - - - - - - -
26/01:30pm 16.3 SSW 19 27 1027.9 - 0.0 - - - - - - -
26/01:00pm 15.9 SSW 22 27 1027.7 - 0.0 - - - - - - -
26/12:30pm 15.2 SSW 22 27 1027.7 - 0.0 - - - - - - -
26/12:00pm 15.1 SW 19 24 1027.6 - 0.0 - - - - - - -
26/11:30am 15.6 SSW 21 26 1027.5 - 0.0 - - - - - - -
26/11:00am 13.5 S 21 31 1027.5 - 0.0 - - - - - - -
26/10:48am 14.9 SSW 20 31 1027.0 - 0.0 - - - - - - -
26/10:30am 14.8 SSW 19 26 1026.8 - 0.0 - - - - - - -
26/10:00am 14.3 SSW 23 28 1026.4 - 0.0 - - - - - - -
26/09:30am 14.4 SSW 23 31 1025.8 - 3.2 - - - - - - -
26/09:00am 14.1 SW 20 29 1025.4 - 3.2 - - - - - - -
26/08:58am 14.3 SW 19 29 1025.3 - 3.2 - - - - - - -
26/08:30am 14.1 SSW 21 27 1025.3 - 3.2 - - - - - - -
26/08:00am 14.4 SSW 23 28 1024.7 - 3.2 - - - - - - -
26/07:30am 14.0 SSW 24 29 1024.3 - 3.2 - - - - - - -
26/07:00am 14.2 SSW 21 25 1024.0 - 3.2 - - - - - - -
26/06:30am 14.0 SSW 25 32 1023.6 - 3.2 - - - - - - -
26/06:00am 14.1 SSW 24 28 1023.3 - 3.2 - - - - - - -
26/05:30am 14.1 SSW 24 30 1023.1 - 3.2 - - - - - - -
26/05:00am 14.0 SSW 20 26 1023.1 - 3.2 - - - - - - -
26/04:30am 13.7 SSW 23 26 1023.3 - 3.2 - - - - - - -
26/04:00am 13.4 SSW 25 30 1023.2 - 3.2 - - - - - - -
26/03:46am 14.0 SSW 20 31 1023.1 - 3.2 - - - - - - -
26/03:30am 13.7 SSW 28 35 1023.3 - 3.2 - - - - - - -
26/03:22am 14.4 SSW 22 34 1023.0 - 3.2 - - - - - - -
26/03:00am 13.9 SSW 24 31 1023.1 - 3.2 - - - - - - -
26/02:30am 14.0 SSW 23 28 1023.0 - 3.2 - - - - - - -
26/02:00am 14.0 SSW 23 28 1022.9 - 3.2 - - - - - - -
26/01:30am 14.3 SSW 24 30 1022.8 - 3.2 - - - - - - -
26/01:00am 14.2 SSW 26 31 1022.6 - 3.2 - - - - - - -
26/12:30am 13.6 SW 19 24 1022.8 - 3.2 Recent precip. - - - - - -
26/12:06am 14.1 SW 25 39 1022.3 - 3.0 - - - - - - -
26/12:00am 14.2 SW 24 30 1022.6 - 3.0 - - - - - - -
 
Date/Time
EDT
Temp

°C
Wind Pressure Rain
since 9am
mm
Weather Cloud Vis
km
Sea
Height
m
Swell
Dir
 
Speed
knots
Gust
knots
hPa Trend Height
m
Period
s
Dir
25/11:30pm 14.5 SW 25 31 1022.3 - 3.0 - - - - - - -
25/11:00pm 14.4 SW 25 31 1022.1 - 3.0 - - - - - - -
25/10:30pm 14.6 SW 26 32 1021.9 - 3.0 - - - - - - -
25/10:00pm 14.7 SW 28 33 1021.5 - 3.0 - - - - - - -
25/09:30pm 14.4 SSW 29 35 1021.1 - 3.0 - - - - - - -
25/09:00pm 14.5 SW 27 33 1020.7 - 3.0 - - - - - - -
25/08:30pm 14.6 SW 29 35 1020.2 - 3.0 - - - - - - -
25/08:00pm 14.8 SW 27 31 1020.0 - 3.0 - - - - - - -
25/07:30pm 14.9 SSW 27 33 1019.6 - 3.0 - - - - - - -
25/07:00pm 15.3 SW 30 35 1019.0 - 3.0 - - - - - - -
25/06:30pm 15.4 SW 31 38 1018.6 - 3.0 - - - - - - -
25/06:00pm 15.9 SW 29 37 1018.2 - 3.0 - - - - - - -
25/05:30pm 15.8 SW 32 39 1017.8 - 3.0 - - - - - - -
25/05:00pm 15.3 SW 31 37 1017.4 - 3.0 - - - - - - -
25/04:37pm 14.9 SW 29 39 1016.9 - 3.0 - - - - - - -
25/04:30pm 14.6 SW 30 36 1017.0 - 3.0 - - - - - - -
25/04:18pm 14.0 SW 32 42 1017.2 - 3.0 - - - - - - -
25/04:00pm 14.6 SW 33 41 1016.9 - 3.0 - - - - - - -
25/03:30pm 14.1 SW 36 41 1016.4 - 3.0 Recent precip. - - - - - -
25/03:15pm 14.3 SW 33 43 1016.4 - 3.0 - - - - - - -
25/03:00pm 14.6 SW 30 38 1016.5 - 2.8 - - - - - - -
25/02:48pm 15.0 SW 29 42 1016.1 - 1.4 - - - - - - -
25/02:41pm 15.6 WSW 32 42 1016.5 - 0.4 - - - - - - -
25/02:35pm 16.6 W 34 44 1016.3 - 0.2 - - - - - - -
25/02:30pm 16.5 W 34 44 1016.1 - 0.0 - - - - - - -
25/02:25pm 17.5 WNW 28 43 1015.8 - 0.0 - - - - - - -
25/02:23pm 18.4 WNW 25 35 1016.1 - 0.0 - - - - - - -
25/02:00pm 18.8 WNW 28 35 1016.2 - 0.0 - - - - - - -
25/01:49pm 18.4 WNW 28 38 1016.5 - 0.0 - - - - - - -
25/01:30pm 19.3 WNW 26 32 1016.6 - 0.0 - - - - - - -
25/01:00pm 18.6 WNW 26 32 1016.9 - 0.0 - - - - - - -
25/12:30pm 18.7 NW 27 33 1017.1 - 0.0 - - - - - - -
25/12:00pm 18.1 WNW 23 28 1017.6 - 0.0 - - - - - - -
25/11:30am 17.8 NW 22 27 1017.6 - 0.0 - - - - - - -
25/11:00am 17.0 NW 23 28 1017.8 - 0.0 - - - - - - -
25/10:49am 16.5 NW 22 29 1017.9 - 0.0 - - - - - - -
25/10:30am 16.5 NW 20 26 1018.0 - 0.0 - - - - - - -
25/10:00am 16.0 NW 19 23 1018.2 - 0.0 - - - - - - -
25/09:30am 15.6 NW 18 22 1018.2 - 0.8 Recent precip. - - - - - -
25/09:00am 15.0 NW 18 22 1018.5 - 0.6 - - - - - - -
25/08:30am 15.0 WNW 16 20 1018.6 - 0.6 - - - - - - -
25/08:15am 15.2 WNW 19 25 1018.7 - 0.2 - - - - - - -
25/08:00am 15.8 NW 18 22 1018.5 - 0.0 - - - - - - -
25/07:30am 16.0 NW 16 20 1018.4 - 0.0 - - - - - - -
25/07:00am 16.1 WNW 15 19 1018.5 - 0.0 - - - - - - -
25/06:30am 16.1 WNW 15 18 1018.3 - 0.0 - - - - - - -
25/06:00am 15.9 WNW 15 18 1018.4 - 0.0 - - - - - - -
25/05:30am 15.9 WNW 13 16 1018.8 - 0.0 - - - - - - -
25/05:00am 15.8 WNW 11 15 1019.0 - 0.0 - - - - - - -
25/04:30am 15.8 W 12 16 1019.5 - 0.0 - - - - - - -
25/04:00am 15.7 WNW 11 14 1019.7 - 0.0 - - - - - - -
25/03:30am 15.8 W 13 15 1020.1 - 0.0 - - - - - - -
25/03:00am 15.4 W 8 11 1020.3 - 0.0 - - - - - - -
25/02:30am 15.7 W 10 13 1020.7 - 0.0 - - - - - - -
25/02:00am 15.6 WSW 7 9 1020.9 - 0.0 - - - - - - -
25/01:30am 15.2 WNW 5 7 1021.2 - 0.0 - - - - - - -
25/01:00am 15.3 WNW 4 5 1021.3 - 0.0 - - - - - - -

Other Formats:

Comma delimited format used in spreadsheet applications
http://www.bom.gov.au/fwo/IDT60701/IDT60701.94804.axf

JavaScript Object Notation format (JSON) in row-major order
http://www.bom.gov.au/fwo/IDT60701/IDT60701.94804.json